Midland International Airport
KMAF : now visible

Airfield :











YOU CAN JOIN US ON...

 
LOGIN :

Register | Disclaimer

   EN    FR    IT 

 









Legend :    VFR   Marginal VFR   IFR   Intensive IFR   Very Intensive IFR
Visi :
Ceiling :
>= 8 km
>= 3000ft
5 to 8 km
1000 to 3000 ft
1500m to 5 km
500 to 1000 ft
800 to 1500m
200 to 500 ft
< 800m
< 200 ft
Symbols :   Thunderstorms  Fog  Heavy snow  Heavy precipitations  Wind > 20 kt







- Airport Elevation : 2871 ft
- IATA code : MAF


KMAF - Midland International

CURRENT METAR :
  • 201953Z 19011KT 10SM FEW055 SCT070 34/17 A2990 RMK AO2 SLP071 T03440172

EXPIRED METARs :
  • 201853Z 17011G16KT 10SM FEW049 33/18 A2994 RMK AO2 SLP085 T03330183
  • 201753Z 20015G22KT 10SM CLR 32/19 A2996 RMK AO2 PK WND 17026/1703 SLP092 T03220189 10328 20228 58004

TAF KMAF
Valid from the 20 at 18:00 until the 21 at 18:00 UTC


201737Z 2018/2118 16013G20KT P6SM SCT080 BKN120
No reported NOTAMs for that airfield.



MET'MAP, your aeronautical weather chart ! - Copyright ORBIFLY December 2007 - Disclaimer

ORBIFLY MET'MAP TEAM :

Programming & Development : Alexandra Zaïnal
Concept & Development : Baudouin d'Aumeries
Co-Development & Prog : Marc-Olivier Méhu
Technical & hardware support : Manuel Goepfert

Contact : metmap@orbifly.com




SOURCES & CREDITS :

   NOAA       Earth
Advisory